createdAt,value
2022-08-20T00:02:11.437Z,8.95
2022-08-20T00:04:39.573Z,8.87
2022-08-20T00:07:06.509Z,9.23
2022-08-20T00:09:36.778Z,9.20
2022-08-20T00:12:05.307Z,9.90
2022-08-20T00:14:33.995Z,8.95
2022-08-20T00:17:01.663Z,9.20
2022-08-20T00:19:28.449Z,9.10
2022-08-20T00:21:57.964Z,9.63
2022-08-20T00:24:25.166Z,9.48
2022-08-20T00:26:53.230Z,9.68
2022-08-20T00:29:20.416Z,9.20
2022-08-20T00:31:48.833Z,7.93
2022-08-20T00:34:15.567Z,8.63
2022-08-20T00:36:42.216Z,8.43
2022-08-20T00:39:09.031Z,8.55
2022-08-20T00:41:35.776Z,8.37
2022-08-20T00:44:11.028Z,7.82
2022-08-20T00:46:38.847Z,8.25
2022-08-20T00:49:07.499Z,8.40
2022-08-20T00:51:38.774Z,7.60
2022-08-20T00:54:11.156Z,8.43
2022-08-20T00:56:39.489Z,8.93
2022-08-20T00:59:12.186Z,8.05
2022-08-20T01:01:40.688Z,8.02
2022-08-20T01:04:23.554Z,7.40
2022-08-20T01:06:50.147Z,6.90
2022-08-20T01:09:16.795Z,7.50
2022-08-20T01:11:43.855Z,7.05
2022-08-20T01:14:13.947Z,7.38
2022-08-20T01:16:40.760Z,7.63
2022-08-20T01:19:29.569Z,8.10
2022-08-20T01:21:57.173Z,7.13
2022-08-20T01:24:29.157Z,7.35
2022-08-20T01:26:57.539Z,7.95
2022-08-20T01:29:29.026Z,7.82
2022-08-20T01:31:55.735Z,7.10
2022-08-20T01:34:22.746Z,8.00
2022-08-20T01:36:52.016Z,7.30
2022-08-20T01:39:25.381Z,7.63
2022-08-20T01:41:59.877Z,8.48
2022-08-20T01:44:26.672Z,7.93
2022-08-20T01:46:54.812Z,8.27
2022-08-20T01:49:28.236Z,7.93
2022-08-20T01:51:58.896Z,7.95
2022-08-20T01:54:26.139Z,7.65
2022-08-20T01:57:00.287Z,7.70
2022-08-20T01:59:27.991Z,7.60
2022-08-20T02:01:55.666Z,7.60
2022-08-20T02:04:22.887Z,8.20
2022-08-20T02:06:56.990Z,7.93
2022-08-20T02:09:25.992Z,7.20
2022-08-20T02:11:52.738Z,6.65
2022-08-20T02:14:21.010Z,7.30
2022-08-20T02:16:54.833Z,6.90
2022-08-20T02:19:26.248Z,7.88
2022-08-20T02:21:56.669Z,7.10
2022-08-20T02:24:23.400Z,7.20
2022-08-20T02:26:50.793Z,6.82
2022-08-20T02:29:17.961Z,6.80
2022-08-20T02:32:32.395Z,7.10
2022-08-20T02:34:34.382Z,6.30
2022-08-20T02:37:01.195Z,7.53
2022-08-20T02:39:28.076Z,7.93
2022-08-20T02:41:54.789Z,7.88
2022-08-20T02:44:21.447Z,7.38
2022-08-20T02:46:49.958Z,8.10
2022-08-20T02:49:17.437Z,8.27
2022-08-20T02:51:44.445Z,7.57
2022-08-20T02:54:11.233Z,7.57
2022-08-20T02:56:38.358Z,7.18
2022-08-20T02:59:05.176Z,7.20
2022-08-20T03:01:32.213Z,7.53
2022-08-20T03:04:00.295Z,7.13
2022-08-20T03:06:27.385Z,7.45
2022-08-20T03:08:54.260Z,7.00
2022-08-20T03:11:20.966Z,6.53
2022-08-20T03:13:47.680Z,6.65
2022-08-20T03:16:14.912Z,6.70
2022-08-20T03:18:45.654Z,6.75
2022-08-20T03:21:14.624Z,7.57
2022-08-20T03:23:42.154Z,7.37
2022-08-20T03:26:11.367Z,7.68
2022-08-20T03:28:38.452Z,7.25
2022-08-20T03:31:06.256Z,7.78
2022-08-20T03:33:33.085Z,7.88
2022-08-20T03:35:59.886Z,7.63
2022-08-20T03:38:32.867Z,7.82
2022-08-20T03:41:00.963Z,8.20
2022-08-20T03:43:28.094Z,8.20
2022-08-20T03:45:54.889Z,8.27
2022-08-20T03:48:22.172Z,9.70
2022-08-20T03:50:49.979Z,8.38
2022-08-20T03:53:17.827Z,8.77
2022-08-20T03:55:54.374Z,9.07
2022-08-20T03:58:34.761Z,9.45
2022-08-20T04:01:05.581Z,7.90
2022-08-20T04:03:32.499Z,7.47
2022-08-20T04:05:59.147Z,7.70
2022-08-20T04:08:27.931Z,7.97
2022-08-20T04:10:57.687Z,7.82
2022-08-20T04:13:25.435Z,8.20
2022-08-20T04:15:52.100Z,8.68
2022-08-20T04:18:18.721Z,8.43
2022-08-20T04:20:45.335Z,8.50
2022-08-20T04:23:12.043Z,8.18
2022-08-20T04:25:38.907Z,7.97
2022-08-20T04:28:19.231Z,7.88
2022-08-20T04:30:51.751Z,7.10
2022-08-20T04:33:19.159Z,7.10
2022-08-20T04:35:49.324Z,7.85
2022-08-20T04:38:19.435Z,7.73
2022-08-20T04:40:46.113Z,8.70
2022-08-20T04:43:15.000Z,8.88
2022-08-20T04:45:42.232Z,9.63
2022-08-20T04:48:14.271Z,9.27
2022-08-20T04:50:44.943Z,8.57
2022-08-20T04:53:13.221Z,9.77
2022-08-20T04:55:42.267Z,10.43
2022-08-20T04:58:11.564Z,9.30
2022-08-20T05:00:39.671Z,9.63
2022-08-20T05:03:06.428Z,9.43
2022-08-20T05:05:33.520Z,9.95
2022-08-20T05:08:00.307Z,9.77
2022-08-20T05:10:27.655Z,10.00
2022-08-20T05:12:56.965Z,9.98
2022-08-20T05:15:24.389Z,11.93
2022-08-20T05:17:55.627Z,10.20
2022-08-20T05:20:23.139Z,12.60
2022-08-20T05:22:49.800Z,11.60
2022-08-20T05:25:16.562Z,11.35
2022-08-20T05:27:47.346Z,14.00
2022-08-20T05:30:14.710Z,13.43
2022-08-20T05:32:44.621Z,12.80
2022-08-20T05:35:12.997Z,12.82
2022-08-20T05:37:40.584Z,13.23
2022-08-20T05:40:13.429Z,12.90
2022-08-20T05:42:40.541Z,12.70
2022-08-20T05:45:11.001Z,13.00
2022-08-20T05:47:42.931Z,12.93
2022-08-20T05:50:20.658Z,14.48
2022-08-20T05:52:50.847Z,13.33
2022-08-20T05:55:17.589Z,13.02
2022-08-20T05:57:44.620Z,14.05
2022-08-20T06:00:14.004Z,13.93
2022-08-20T06:02:42.525Z,12.68
2022-08-20T06:05:09.583Z,13.17
2022-08-20T06:07:37.698Z,12.60
2022-08-20T06:10:05.071Z,13.13
2022-08-20T06:12:31.744Z,12.45
2022-08-20T06:14:58.995Z,12.85
2022-08-20T06:17:25.700Z,12.73
2022-08-20T06:19:58.232Z,14.45
2022-08-20T06:22:27.198Z,14.18
2022-08-20T06:24:55.787Z,14.05
2022-08-20T06:27:22.862Z,15.15
2022-08-20T06:29:50.392Z,13.47
2022-08-20T06:32:17.663Z,14.45
2022-08-20T06:34:49.113Z,13.98
2022-08-20T06:37:19.799Z,13.63
2022-08-20T06:39:46.498Z,14.10
2022-08-20T06:42:14.675Z,13.17
2022-08-20T06:44:47.780Z,13.45
2022-08-20T06:47:14.443Z,13.55
2022-08-20T06:49:41.245Z,12.13
2022-08-20T06:52:07.883Z,14.02
2022-08-20T06:54:38.360Z,13.43
2022-08-20T06:57:05.419Z,15.20
2022-08-20T06:59:33.461Z,13.52
2022-08-20T07:02:00.191Z,14.10
2022-08-20T07:04:27.023Z,14.63
2022-08-20T07:06:54.422Z,14.80
2022-08-20T07:09:21.879Z,13.50
2022-08-20T07:11:48.941Z,12.55
2022-08-20T07:14:15.777Z,13.52
2022-08-20T07:16:44.667Z,14.55
2022-08-20T07:19:11.312Z,12.20
2022-08-20T07:21:37.915Z,13.25
2022-08-20T07:24:04.955Z,12.13
2022-08-20T07:26:32.045Z,12.82
2022-08-20T07:28:58.879Z,11.93
2022-08-20T07:31:25.507Z,11.93
2022-08-20T07:33:55.083Z,11.57
2022-08-20T07:36:21.875Z,12.45
2022-08-20T07:38:48.651Z,12.70
2022-08-20T07:41:15.301Z,13.70
2022-08-20T07:43:42.740Z,12.03
2022-08-20T07:46:09.875Z,11.32
2022-08-20T07:48:39.500Z,11.85
2022-08-20T07:51:09.398Z,12.95
2022-08-20T07:53:37.767Z,13.82
2022-08-20T07:56:09.196Z,11.33
2022-08-20T07:58:38.179Z,11.55
2022-08-20T08:01:06.074Z,11.00
2022-08-20T08:03:40.603Z,13.00
2022-08-20T08:06:28.146Z,11.30
2022-08-20T08:08:58.527Z,12.63
2022-08-20T08:11:25.263Z,11.52
2022-08-20T08:13:51.835Z,11.65
2022-08-20T08:16:18.528Z,11.80
2022-08-20T08:18:48.168Z,11.25
2022-08-20T08:21:14.841Z,11.60
2022-08-20T08:23:42.804Z,11.75
2022-08-20T08:26:15.909Z,11.25
2022-08-20T08:28:45.895Z,11.50
2022-08-20T08:31:13.135Z,10.38
2022-08-20T08:33:40.301Z,10.43
2022-08-20T08:36:09.347Z,10.50
2022-08-20T08:38:37.416Z,10.35
2022-08-20T08:41:14.125Z,10.50
2022-08-20T08:43:41.852Z,10.35
2022-08-20T08:46:12.061Z,11.27
2022-08-20T08:48:42.322Z,11.13
2022-08-20T08:51:11.626Z,11.20
2022-08-20T08:53:42.351Z,11.07
2022-08-20T08:56:10.671Z,11.23
2022-08-20T08:58:37.342Z,10.63
2022-08-20T09:01:18.776Z,10.10
2022-08-20T09:03:56.696Z,10.18
2022-08-20T09:06:25.616Z,10.48
2022-08-20T09:08:54.625Z,9.60
2022-08-20T09:11:24.156Z,9.37
2022-08-20T09:13:51.328Z,9.25
2022-08-20T09:16:18.039Z,11.18
2022-08-20T09:18:44.667Z,8.70
2022-08-20T09:21:11.405Z,9.80
2022-08-20T09:23:38.440Z,9.53
2022-08-20T09:26:05.338Z,9.75
2022-08-20T09:28:34.883Z,10.40
2022-08-20T09:31:02.248Z,9.02
2022-08-20T09:33:28.959Z,9.90
2022-08-20T09:35:55.653Z,9.43
2022-08-20T09:38:22.310Z,9.00
2022-08-20T09:40:48.944Z,9.23
2022-08-20T09:43:15.598Z,10.23
2022-08-20T09:45:43.594Z,11.38
2022-08-20T09:48:10.674Z,10.20
2022-08-20T09:50:40.581Z,10.05
2022-08-20T09:53:07.353Z,9.38
2022-08-20T09:55:36.395Z,9.40
2022-08-20T09:58:05.997Z,9.70
2022-08-20T10:00:32.633Z,8.10
2022-08-20T10:03:00.611Z,8.55
2022-08-20T10:05:27.384Z,8.57
2022-08-20T10:07:54.032Z,8.00
2022-08-20T10:10:20.710Z,7.55
2022-08-20T10:12:50.515Z,9.57
2022-08-20T10:15:19.692Z,9.20
2022-08-20T10:17:46.345Z,8.63
2022-08-20T10:20:14.849Z,7.32
2022-08-20T10:22:42.008Z,7.78
2022-08-20T10:25:09.331Z,7.27
2022-08-20T10:27:36.531Z,7.72
2022-08-20T10:30:05.319Z,8.93
2022-08-20T10:32:32.068Z,8.13
2022-08-20T10:34:58.767Z,8.32
2022-08-20T10:37:27.088Z,8.03
2022-08-20T10:39:54.592Z,8.15
2022-08-20T10:42:21.564Z,8.55
2022-08-20T10:44:48.375Z,8.43
2022-08-20T10:47:22.375Z,9.45
2022-08-20T10:49:51.179Z,8.30
2022-08-20T10:52:18.068Z,9.13
2022-08-20T10:54:46.072Z,8.15
2022-08-20T10:57:15.549Z,8.77
2022-08-20T10:59:43.923Z,10.13
2022-08-20T11:02:10.782Z,8.33
2022-08-20T11:04:37.651Z,9.02
2022-08-20T11:07:12.126Z,8.40
2022-08-20T11:09:38.961Z,8.60
2022-08-20T11:12:08.256Z,9.43
2022-08-20T11:14:34.915Z,9.37
2022-08-20T11:17:02.434Z,8.77
2022-08-20T11:19:29.388Z,7.88
2022-08-20T11:21:57.159Z,8.40
2022-08-20T11:24:24.064Z,7.90
2022-08-20T11:26:51.418Z,7.63
2022-08-20T11:29:19.514Z,8.32
2022-08-20T11:31:46.227Z,7.60
2022-08-20T11:34:13.053Z,6.80
2022-08-20T11:36:40.620Z,5.97
2022-08-20T11:39:07.304Z,6.03
2022-08-20T11:41:33.993Z,5.93
2022-08-20T11:44:20.837Z,6.88
2022-08-20T11:46:48.923Z,6.45
2022-08-20T11:49:15.683Z,5.88
2022-08-20T11:51:49.614Z,6.07
2022-08-20T11:54:16.915Z,6.20
2022-08-20T11:56:45.754Z,6.57
2022-08-20T11:59:12.939Z,6.68
2022-08-20T12:01:39.578Z,6.80
2022-08-20T12:04:07.615Z,6.87
2022-08-20T12:06:34.253Z,8.90
2022-08-20T12:09:00.920Z,8.02
2022-08-20T12:11:27.564Z,8.57
2022-08-20T12:13:54.200Z,9.00
2022-08-20T12:16:20.947Z,9.90
2022-08-20T12:18:48.241Z,9.57
2022-08-20T12:21:17.291Z,8.38
2022-08-20T12:23:44.331Z,7.15
2022-08-20T12:26:11.235Z,6.80
2022-08-20T12:28:37.990Z,7.03
2022-08-20T12:31:04.687Z,7.55
2022-08-20T12:33:31.380Z,7.07
2022-08-20T12:35:58.505Z,7.45
2022-08-20T12:38:26.720Z,6.82
2022-08-20T12:40:53.347Z,7.90
2022-08-20T12:43:24.685Z,6.75
2022-08-20T12:45:51.931Z,6.90
2022-08-20T12:48:18.603Z,6.82
2022-08-20T12:50:45.287Z,7.53
2022-08-20T12:53:12.092Z,6.97
2022-08-20T12:55:40.165Z,6.60
2022-08-20T12:58:09.379Z,7.22
2022-08-20T13:00:38.163Z,6.85
2022-08-20T13:03:06.575Z,5.78
2022-08-20T13:05:34.521Z,5.70
2022-08-20T13:08:01.591Z,5.63
2022-08-20T13:10:31.200Z,5.65
2022-08-20T13:13:00.140Z,5.63
2022-08-20T13:15:26.791Z,5.57
2022-08-20T13:17:53.952Z,5.30
2022-08-20T13:20:21.790Z,5.65
2022-08-20T13:22:48.385Z,5.97
2022-08-20T13:25:15.041Z,6.03
2022-08-20T13:27:42.683Z,5.60
2022-08-20T13:30:14.606Z,5.87
2022-08-20T13:32:41.572Z,6.10
2022-08-20T13:35:09.465Z,6.47
2022-08-20T13:37:36.163Z,6.13
2022-08-20T13:40:04.059Z,6.10
2022-08-20T13:42:30.823Z,6.73
2022-08-20T13:44:57.432Z,5.38
2022-08-20T13:47:29.011Z,5.97
2022-08-20T13:49:57.784Z,6.60
2022-08-20T13:52:24.555Z,5.22
2022-08-20T13:54:51.197Z,5.67
2022-08-20T13:57:19.895Z,6.60
2022-08-20T13:59:49.011Z,6.07
2022-08-20T14:02:17.461Z,6.93
2022-08-20T14:04:45.880Z,5.63
2022-08-20T14:07:14.749Z,6.20
2022-08-20T14:09:43.663Z,5.85
2022-08-20T14:12:11.407Z,5.70
2022-08-20T14:14:38.052Z,5.93
2022-08-20T14:17:18.924Z,5.55
2022-08-20T14:19:49.034Z,5.97
2022-08-20T14:22:15.888Z,6.20
2022-08-20T14:24:42.483Z,5.68
2022-08-20T14:27:09.497Z,5.40
2022-08-20T14:29:39.170Z,6.28
2022-08-20T14:32:07.257Z,6.17
2022-08-20T14:34:34.136Z,6.50
2022-08-20T14:37:12.404Z,5.80
2022-08-20T14:39:39.301Z,6.05
2022-08-20T14:42:06.405Z,6.10
2022-08-20T14:44:33.140Z,6.07
2022-08-20T14:47:10.821Z,5.97
2022-08-20T14:49:37.603Z,5.40
2022-08-20T14:52:04.592Z,5.60
2022-08-20T14:54:32.668Z,5.90
2022-08-20T14:57:02.184Z,5.90
2022-08-20T14:59:29.150Z,5.88
2022-08-20T15:01:56.135Z,5.80
2022-08-20T15:04:23.617Z,5.68
2022-08-20T15:06:54.595Z,5.20
2022-08-20T15:09:21.474Z,5.10
2022-08-20T15:11:49.673Z,3.80
2022-08-20T15:14:18.442Z,2.28
2022-08-20T15:16:46.334Z,1.88
2022-08-20T15:19:12.993Z,2.67
2022-08-20T15:21:45.248Z,3.73
2022-08-20T15:24:18.878Z,3.35
2022-08-20T15:26:46.286Z,3.22
2022-08-20T15:29:22.884Z,3.42
2022-08-20T15:31:50.345Z,5.05
2022-08-20T15:34:17.878Z,4.83
2022-08-20T15:36:44.999Z,4.38
2022-08-20T15:39:11.728Z,4.38
2022-08-20T15:41:38.367Z,4.30
2022-08-20T15:44:05.138Z,4.03
2022-08-20T15:46:37.679Z,4.33
2022-08-20T15:49:10.009Z,3.88
2022-08-20T15:51:43.246Z,3.53
2022-08-20T15:54:17.007Z,3.20
2022-08-20T15:56:52.818Z,2.55
2022-08-20T15:59:40.173Z,3.03
2022-08-20T16:02:25.109Z,3.47
2022-08-20T16:05:03.378Z,2.88
2022-08-20T16:07:36.553Z,3.50
2022-08-20T16:10:15.097Z,3.88
2022-08-20T16:12:44.041Z,3.73
2022-08-20T16:15:16.347Z,3.30
2022-08-20T16:17:47.132Z,3.15
2022-08-20T16:20:20.285Z,3.55
2022-08-20T16:22:47.845Z,3.90
2022-08-20T16:25:16.225Z,3.80
2022-08-20T16:27:51.614Z,4.38
2022-08-20T16:30:32.629Z,5.55
2022-08-20T16:33:06.262Z,4.93
2022-08-20T16:35:35.212Z,4.15
2022-08-20T16:38:10.229Z,4.10
2022-08-20T16:40:44.647Z,4.50
2022-08-20T16:43:21.497Z,3.83
2022-08-20T16:45:51.680Z,3.47
2022-08-20T16:48:20.209Z,4.35
2022-08-20T16:50:56.104Z,4.63
2022-08-20T16:53:24.392Z,4.50
2022-08-20T16:55:51.089Z,3.80
2022-08-20T16:58:17.801Z,3.70
2022-08-20T17:00:45.697Z,3.97
2022-08-20T17:03:39.157Z,3.73
2022-08-20T17:06:16.724Z,4.63
2022-08-20T17:08:49.740Z,4.03
2022-08-20T17:11:24.260Z,3.58
2022-08-20T17:14:06.809Z,4.03
2022-08-20T17:16:36.276Z,3.50
2022-08-20T17:19:15.048Z,3.22
2022-08-20T17:21:41.879Z,2.40
2022-08-20T17:24:16.977Z,3.30
2022-08-20T17:26:46.386Z,2.90
2022-08-20T17:29:17.065Z,2.53
2022-08-20T17:31:45.811Z,2.60
2022-08-20T17:34:19.497Z,2.35
2022-08-20T17:36:54.928Z,1.80
2022-08-20T17:39:23.018Z,1.70
2022-08-20T17:41:52.154Z,1.60
2022-08-20T17:44:25.714Z,1.77
2022-08-20T17:46:53.653Z,1.88
2022-08-20T17:49:39.285Z,1.90
2022-08-20T17:52:12.693Z,2.05
2022-08-20T17:54:43.936Z,1.70
2022-08-20T17:57:14.282Z,1.70
2022-08-20T18:00:01.232Z,2.08
2022-08-20T18:02:30.510Z,2.13
2022-08-20T18:04:58.653Z,1.75
2022-08-20T18:07:28.165Z,2.80
2022-08-20T18:09:58.285Z,2.05
2022-08-20T18:12:34.502Z,2.00
2022-08-20T18:15:08.649Z,2.25
2022-08-20T18:18:02.632Z,2.40
2022-08-20T18:21:05.694Z,1.87
2022-08-20T18:23:36.878Z,1.80
2022-08-20T18:26:08.049Z,2.08
2022-08-20T18:28:38.869Z,2.22
2022-08-20T18:31:07.397Z,2.35
2022-08-20T18:33:36.432Z,2.20
2022-08-20T18:36:22.790Z,1.92
2022-08-20T18:38:58.922Z,2.30
2022-08-20T18:41:30.523Z,2.20
2022-08-20T18:44:07.918Z,2.60
2022-08-20T18:46:36.839Z,2.43
2022-08-20T18:49:05.713Z,1.95
2022-08-20T18:51:39.484Z,2.67
2022-08-20T18:54:06.290Z,2.65
2022-08-20T18:56:40.251Z,2.90
2022-08-20T18:59:14.298Z,2.80
2022-08-20T19:01:42.707Z,3.10
2022-08-20T19:04:23.314Z,2.38
2022-08-20T19:06:57.473Z,2.47
2022-08-20T19:09:50.627Z,2.55
2022-08-20T19:12:33.270Z,3.13
2022-08-20T19:15:07.183Z,2.60
2022-08-20T19:17:57.280Z,3.08
2022-08-20T19:20:26.748Z,3.30
2022-08-20T19:23:00.433Z,3.40
2022-08-20T19:25:29.309Z,3.13
2022-08-20T19:27:57.004Z,3.33
2022-08-20T19:30:36.914Z,2.90
2022-08-20T19:33:05.000Z,2.75
2022-08-20T19:35:32.204Z,3.00
2022-08-20T19:38:00.471Z,2.70
2022-08-20T19:40:29.413Z,2.75
2022-08-20T19:42:58.219Z,2.50
2022-08-20T19:45:30.674Z,2.55
2022-08-20T19:48:09.010Z,2.53
2022-08-20T19:50:42.090Z,2.77
2022-08-20T19:53:30.093Z,2.90
2022-08-20T19:55:59.999Z,2.75
2022-08-20T19:58:30.356Z,2.63
2022-08-20T20:00:58.220Z,2.97
2022-08-20T20:03:27.173Z,3.40
2022-08-20T20:05:56.373Z,3.22
2022-08-20T20:08:28.600Z,4.07
2022-08-20T20:10:58.940Z,3.80
2022-08-20T20:13:29.670Z,4.00
2022-08-20T20:16:02.582Z,3.50
2022-08-20T20:18:33.857Z,4.18
2022-08-20T20:21:12.301Z,4.20
2022-08-20T20:23:46.679Z,4.03
2022-08-20T20:26:17.814Z,4.15
2022-08-20T20:28:47.134Z,4.20
2022-08-20T20:31:22.253Z,3.15
2022-08-20T20:33:53.049Z,3.20
2022-08-20T20:36:33.702Z,3.05
2022-08-20T20:39:04.989Z,2.60
2022-08-20T20:41:32.321Z,3.13
2022-08-20T20:44:01.697Z,3.75
2022-08-20T20:46:30.282Z,3.10
2022-08-20T20:49:00.797Z,2.88
2022-08-20T20:51:29.708Z,2.90
2022-08-20T20:53:58.480Z,2.83
2022-08-20T20:56:33.379Z,2.83
2022-08-20T20:59:05.877Z,2.70
2022-08-20T21:01:49.412Z,3.13
2022-08-20T21:04:18.323Z,3.28
2022-08-20T21:06:44.949Z,3.83
2022-08-20T21:09:11.917Z,3.40
2022-08-20T21:11:39.937Z,3.30
2022-08-20T21:14:06.539Z,3.72
2022-08-20T21:16:33.214Z,2.90
2022-08-20T21:19:06.406Z,3.30
2022-08-20T21:21:33.397Z,2.85
2022-08-20T21:24:00.081Z,3.28
2022-08-20T21:26:28.474Z,3.20
2022-08-20T21:28:56.607Z,3.47
2022-08-20T21:31:26.062Z,2.83
2022-08-20T21:33:52.761Z,2.90
2022-08-20T21:36:19.361Z,3.00
2022-08-20T21:38:45.943Z,2.67
2022-08-20T21:41:12.673Z,2.67
2022-08-20T21:43:39.372Z,2.43
2022-08-20T21:46:10.881Z,2.50
2022-08-20T21:48:39.951Z,3.30
2022-08-20T21:51:06.629Z,3.15
2022-08-20T21:53:33.418Z,2.83
2022-08-20T21:56:00.393Z,3.73
2022-08-20T21:58:27.029Z,3.15
2022-08-20T22:00:55.794Z,2.65
2022-08-20T22:03:26.369Z,3.40
2022-08-20T22:05:53.580Z,3.47
2022-08-20T22:08:21.015Z,3.20
2022-08-20T22:10:52.345Z,2.92
2022-08-20T22:13:19.400Z,3.28
2022-08-20T22:15:46.138Z,3.30
2022-08-20T22:18:12.912Z,2.80
2022-08-20T22:20:41.250Z,3.90
2022-08-20T22:23:08.197Z,3.53
2022-08-20T22:25:34.971Z,3.80
2022-08-20T22:28:01.689Z,3.58
2022-08-20T22:30:29.177Z,3.33
2022-08-20T22:32:59.976Z,3.50
2022-08-20T22:35:26.657Z,3.58
2022-08-20T22:37:54.823Z,3.25
2022-08-20T22:40:21.955Z,3.00
2022-08-20T22:42:48.663Z,3.15
2022-08-20T22:45:15.586Z,3.60
2022-08-20T22:47:43.069Z,3.33
2022-08-20T22:50:10.881Z,3.72
2022-08-20T22:52:39.221Z,3.40
2022-08-20T22:55:09.638Z,4.05
2022-08-20T22:57:36.985Z,4.17
2022-08-20T23:00:11.514Z,3.75
2022-08-20T23:02:38.382Z,4.10
2022-08-20T23:05:06.269Z,4.60
2022-08-20T23:07:33.784Z,4.50
2022-08-20T23:10:00.381Z,4.13
2022-08-20T23:12:28.436Z,4.47
2022-08-20T23:14:55.111Z,4.60
2022-08-20T23:17:22.283Z,4.18
2022-08-20T23:19:50.077Z,5.53
2022-08-20T23:22:18.108Z,4.37
2022-08-20T23:24:45.183Z,4.90
2022-08-20T23:27:15.585Z,4.60
2022-08-20T23:29:43.841Z,4.32
2022-08-20T23:32:11.507Z,4.55
2022-08-20T23:34:38.182Z,3.43
2022-08-20T23:37:05.808Z,4.47
2022-08-20T23:39:32.728Z,3.53
2022-08-20T23:42:00.677Z,3.92
2022-08-20T23:44:27.725Z,5.00
2022-08-20T23:46:58.100Z,4.60
2022-08-20T23:49:25.754Z,5.28
2022-08-20T23:51:52.514Z,5.25
2022-08-20T23:54:19.425Z,5.20
2022-08-20T23:56:46.066Z,5.57
2022-08-20T23:59:12.734Z,5.67
